sensor_id;sensor_type;location;lat;lon;timestamp;P1;durP1;ratioP1;P2;durP2;ratioP2
40503;SDS011;42292;49.048;8.374;2022-10-16T00:01:21;4.97;;;1.48;;
40503;SDS011;42292;49.048;8.374;2022-10-16T00:03:51;2.72;;;1.17;;
40503;SDS011;42292;49.048;8.374;2022-10-16T00:06:18;3.57;;;1.50;;
40503;SDS011;42292;49.048;8.374;2022-10-16T00:08:46;3.70;;;1.30;;
40503;SDS011;42292;49.048;8.374;2022-10-16T00:11:17;3.40;;;1.40;;
40503;SDS011;42292;49.048;8.374;2022-10-16T00:13:47;5.10;;;1.40;;
40503;SDS011;42292;49.048;8.374;2022-10-16T00:16:14;3.63;;;1.50;;
40503;SDS011;42292;49.048;8.374;2022-10-16T00:18:41;3.28;;;1.40;;
40503;SDS011;42292;49.048;8.374;2022-10-16T00:21:08;4.10;;;1.33;;
40503;SDS011;42292;49.048;8.374;2022-10-16T00:23:38;3.25;;;1.60;;
40503;SDS011;42292;49.048;8.374;2022-10-16T00:26:07;3.67;;;1.58;;
40503;SDS011;42292;49.048;8.374;2022-10-16T00:28:34;3.58;;;1.65;;
40503;SDS011;42292;49.048;8.374;2022-10-16T00:31:04;3.15;;;1.50;;
40503;SDS011;42292;49.048;8.374;2022-10-16T00:33:32;1.20;;;1.10;;
40503;SDS011;42292;49.048;8.374;2022-10-16T00:35:59;4.32;;;1.70;;
40503;SDS011;42292;49.048;8.374;2022-10-16T00:38:25;3.75;;;1.70;;
40503;SDS011;42292;49.048;8.374;2022-10-16T00:40:51;1.80;;;1.45;;
40503;SDS011;42292;49.048;8.374;2022-10-16T00:46:19;2.45;;;1.30;;
40503;SDS011;42292;49.048;8.374;2022-10-16T00:51:21;2.47;;;1.40;;
40503;SDS011;42292;49.048;8.374;2022-10-16T00:53:52;5.20;;;1.50;;
40503;SDS011;42292;49.048;8.374;2022-10-16T00:56:18;2.33;;;1.50;;
40503;SDS011;42292;49.048;8.374;2022-10-16T00:58:43;2.90;;;1.40;;
40503;SDS011;42292;49.048;8.374;2022-10-16T01:01:12;2.13;;;1.50;;
40503;SDS011;42292;49.048;8.374;2022-10-16T01:03:37;1.67;;;1.33;;
40503;SDS011;42292;49.048;8.374;2022-10-16T01:06:12;2.38;;;1.48;;
40503;SDS011;42292;49.048;8.374;2022-10-16T01:11:27;2.20;;;1.60;;
40503;SDS011;42292;49.048;8.374;2022-10-16T01:13:59;3.28;;;1.40;;
40503;SDS011;42292;49.048;8.374;2022-10-16T01:16:40;2.15;;;1.80;;
40503;SDS011;42292;49.048;8.374;2022-10-16T01:19:16;1.95;;;1.40;;
40503;SDS011;42292;49.048;8.374;2022-10-16T01:21:50;2.17;;;1.58;;
40503;SDS011;42292;49.048;8.374;2022-10-16T01:24:27;2.30;;;1.52;;
40503;SDS011;42292;49.048;8.374;2022-10-16T01:35:21;3.22;;;1.60;;
40503;SDS011;42292;49.048;8.374;2022-10-16T01:40:32;6.82;;;1.90;;
40503;SDS011;42292;49.048;8.374;2022-10-16T01:43:12;3.97;;;1.60;;
40503;SDS011;42292;49.048;8.374;2022-10-16T01:45:44;4.32;;;1.83;;
40503;SDS011;42292;49.048;8.374;2022-10-16T01:48:12;3.13;;;1.90;;
40503;SDS011;42292;49.048;8.374;2022-10-16T01:50:43;2.47;;;1.90;;
40503;SDS011;42292;49.048;8.374;2022-10-16T01:53:15;3.90;;;1.70;;
40503;SDS011;42292;49.048;8.374;2022-10-16T01:55:45;4.00;;;1.95;;
40503;SDS011;42292;49.048;8.374;2022-10-16T01:58:15;5.97;;;1.87;;
40503;SDS011;42292;49.048;8.374;2022-10-16T02:00:44;4.07;;;1.85;;
40503;SDS011;42292;49.048;8.374;2022-10-16T02:03:12;3.00;;;1.52;;
40503;SDS011;42292;49.048;8.374;2022-10-16T02:08:17;2.03;;;1.60;;
40503;SDS011;42292;49.048;8.374;2022-10-16T02:10:47;3.70;;;1.70;;
40503;SDS011;42292;49.048;8.374;2022-10-16T02:13:57;3.10;;;1.87;;
40503;SDS011;42292;49.048;8.374;2022-10-16T02:16:04;4.13;;;1.85;;
40503;SDS011;42292;49.048;8.374;2022-10-16T02:18:32;3.90;;;1.63;;
40503;SDS011;42292;49.048;8.374;2022-10-16T02:20:59;3.83;;;2.05;;
40503;SDS011;42292;49.048;8.374;2022-10-16T02:23:40;2.63;;;1.90;;
40503;SDS011;42292;49.048;8.374;2022-10-16T02:26:19;7.35;;;2.30;;
40503;SDS011;42292;49.048;8.374;2022-10-16T02:29:02;2.90;;;2.00;;
40503;SDS011;42292;49.048;8.374;2022-10-16T02:31:35;3.20;;;2.03;;
40503;SDS011;42292;49.048;8.374;2022-10-16T02:34:06;4.60;;;2.00;;
40503;SDS011;42292;49.048;8.374;2022-10-16T02:36:36;4.13;;;2.10;;
40503;SDS011;42292;49.048;8.374;2022-10-16T02:39:03;4.22;;;2.03;;
40503;SDS011;42292;49.048;8.374;2022-10-16T02:41:30;2.90;;;2.10;;
40503;SDS011;42292;49.048;8.374;2022-10-16T02:43:56;3.33;;;1.98;;
40503;SDS011;42292;49.048;8.374;2022-10-16T02:46:23;4.30;;;2.20;;
40503;SDS011;42292;49.048;8.374;2022-10-16T02:48:52;4.13;;;2.05;;
40503;SDS011;42292;49.048;8.374;2022-10-16T02:51:18;3.40;;;1.98;;
40503;SDS011;42292;49.048;8.374;2022-10-16T02:53:43;5.00;;;1.90;;
40503;SDS011;42292;49.048;8.374;2022-10-16T02:56:11;2.15;;;1.80;;
40503;SDS011;42292;49.048;8.374;2022-10-16T02:58:41;2.42;;;2.00;;
40503;SDS011;42292;49.048;8.374;2022-10-16T03:01:07;2.95;;;1.83;;
40503;SDS011;42292;49.048;8.374;2022-10-16T03:03:39;3.78;;;1.98;;
40503;SDS011;42292;49.048;8.374;2022-10-16T03:06:05;3.85;;;1.90;;
40503;SDS011;42292;49.048;8.374;2022-10-16T03:08:31;5.60;;;2.10;;
40503;SDS011;42292;49.048;8.374;2022-10-16T03:10:56;3.28;;;2.03;;
40503;SDS011;42292;49.048;8.374;2022-10-16T03:13:22;3.95;;;1.90;;
40503;SDS011;42292;49.048;8.374;2022-10-16T03:15:52;4.65;;;1.73;;
40503;SDS011;42292;49.048;8.374;2022-10-16T03:18:20;2.90;;;1.92;;
40503;SDS011;42292;49.048;8.374;2022-10-16T03:20:48;4.22;;;1.90;;
40503;SDS011;42292;49.048;8.374;2022-10-16T03:23:14;3.67;;;1.90;;
40503;SDS011;42292;49.048;8.374;2022-10-16T03:25:44;2.95;;;2.22;;
40503;SDS011;42292;49.048;8.374;2022-10-16T03:28:12;3.30;;;2.42;;
40503;SDS011;42292;49.048;8.374;2022-10-16T03:30:37;3.25;;;2.17;;
40503;SDS011;42292;49.048;8.374;2022-10-16T03:33:07;7.18;;;2.55;;
40503;SDS011;42292;49.048;8.374;2022-10-16T03:35:34;3.53;;;2.13;;
40503;SDS011;42292;49.048;8.374;2022-10-16T03:38:00;6.27;;;2.07;;
40503;SDS011;42292;49.048;8.374;2022-10-16T03:40:26;2.70;;;2.10;;
40503;SDS011;42292;49.048;8.374;2022-10-16T03:42:56;5.38;;;2.35;;
40503;SDS011;42292;49.048;8.374;2022-10-16T03:45:22;4.10;;;2.28;;
40503;SDS011;42292;49.048;8.374;2022-10-16T03:47:47;2.55;;;1.90;;
40503;SDS011;42292;49.048;8.374;2022-10-16T03:50:13;3.45;;;2.40;;
40503;SDS011;42292;49.048;8.374;2022-10-16T03:52:39;5.63;;;2.28;;
40503;SDS011;42292;49.048;8.374;2022-10-16T03:55:07;7.53;;;2.10;;
40503;SDS011;42292;49.048;8.374;2022-10-16T03:57:33;7.00;;;2.20;;
40503;SDS011;42292;49.048;8.374;2022-10-16T04:00:03;5.95;;;2.25;;
40503;SDS011;42292;49.048;8.374;2022-10-16T04:02:29;7.38;;;2.05;;
40503;SDS011;42292;49.048;8.374;2022-10-16T04:04:57;5.88;;;2.00;;
40503;SDS011;42292;49.048;8.374;2022-10-16T04:07:24;4.90;;;2.00;;
40503;SDS011;42292;49.048;8.374;2022-10-16T04:09:50;2.85;;;1.85;;
40503;SDS011;42292;49.048;8.374;2022-10-16T04:12:17;5.68;;;1.90;;
40503;SDS011;42292;49.048;8.374;2022-10-16T04:14:42;3.20;;;2.03;;
40503;SDS011;42292;49.048;8.374;2022-10-16T04:17:08;3.50;;;1.53;;
40503;SDS011;42292;49.048;8.374;2022-10-16T04:19:33;6.80;;;2.00;;
40503;SDS011;42292;49.048;8.374;2022-10-16T04:21:59;3.10;;;1.50;;
40503;SDS011;42292;49.048;8.374;2022-10-16T04:24:27;2.70;;;1.80;;
40503;SDS011;42292;49.048;8.374;2022-10-16T04:26:54;6.13;;;2.13;;
40503;SDS011;42292;49.048;8.374;2022-10-16T04:29:20;3.90;;;1.77;;
40503;SDS011;42292;49.048;8.374;2022-10-16T04:31:46;2.60;;;1.47;;
40503;SDS011;42292;49.048;8.374;2022-10-16T04:34:12;2.90;;;1.60;;
40503;SDS011;42292;49.048;8.374;2022-10-16T04:36:37;2.97;;;1.50;;
40503;SDS011;42292;49.048;8.374;2022-10-16T04:39:03;2.88;;;1.65;;
40503;SDS011;42292;49.048;8.374;2022-10-16T04:41:31;2.97;;;1.50;;
40503;SDS011;42292;49.048;8.374;2022-10-16T04:43:58;3.95;;;2.00;;
40503;SDS011;42292;49.048;8.374;2022-10-16T04:46:29;3.90;;;1.73;;
40503;SDS011;42292;49.048;8.374;2022-10-16T04:48:56;2.67;;;1.45;;
40503;SDS011;42292;49.048;8.374;2022-10-16T04:51:22;2.40;;;1.50;;
40503;SDS011;42292;49.048;8.374;2022-10-16T04:53:48;2.78;;;1.50;;
40503;SDS011;42292;49.048;8.374;2022-10-16T04:56:14;4.10;;;1.60;;
40503;SDS011;42292;49.048;8.374;2022-10-16T04:58:40;6.13;;;1.50;;
40503;SDS011;42292;49.048;8.374;2022-10-16T05:01:10;4.65;;;2.03;;
40503;SDS011;42292;49.048;8.374;2022-10-16T05:03:36;4.97;;;1.95;;
40503;SDS011;42292;49.048;8.374;2022-10-16T05:06:01;16.27;;;14.38;;
40503;SDS011;42292;49.048;8.374;2022-10-16T05:08:32;18.33;;;16.45;;
40503;SDS011;42292;49.048;8.374;2022-10-16T05:10:57;32.75;;;28.35;;
40503;SDS011;42292;49.048;8.374;2022-10-16T05:13:24;6.25;;;1.98;;
40503;SDS011;42292;49.048;8.374;2022-10-16T05:15:52;6.57;;;2.20;;
40503;SDS011;42292;49.048;8.374;2022-10-16T05:18:18;5.00;;;1.98;;
40503;SDS011;42292;49.048;8.374;2022-10-16T05:20:43;4.07;;;1.90;;
40503;SDS011;42292;49.048;8.374;2022-10-16T05:23:09;8.00;;;1.90;;
40503;SDS011;42292;49.048;8.374;2022-10-16T05:25:39;3.67;;;1.75;;
40503;SDS011;42292;49.048;8.374;2022-10-16T05:28:07;3.88;;;2.00;;
40503;SDS011;42292;49.048;8.374;2022-10-16T05:30:36;4.25;;;2.05;;
40503;SDS011;42292;49.048;8.374;2022-10-16T05:33:05;7.50;;;2.08;;
40503;SDS011;42292;49.048;8.374;2022-10-16T05:35:31;7.13;;;2.50;;
40503;SDS011;42292;49.048;8.374;2022-10-16T05:37:56;7.07;;;2.47;;
40503;SDS011;42292;49.048;8.374;2022-10-16T05:40:22;5.10;;;2.00;;
40503;SDS011;42292;49.048;8.374;2022-10-16T05:42:48;4.43;;;2.05;;
40503;SDS011;42292;49.048;8.374;2022-10-16T05:45:14;2.53;;;1.80;;
40503;SDS011;42292;49.048;8.374;2022-10-16T05:47:41;3.40;;;1.60;;
40503;SDS011;42292;49.048;8.374;2022-10-16T05:50:10;5.00;;;2.25;;
40503;SDS011;42292;49.048;8.374;2022-10-16T05:52:38;3.42;;;1.90;;
40503;SDS011;42292;49.048;8.374;2022-10-16T05:55:03;6.23;;;2.13;;
40503;SDS011;42292;49.048;8.374;2022-10-16T05:57:29;4.05;;;1.73;;
40503;SDS011;42292;49.048;8.374;2022-10-16T05:59:59;11.15;;;2.28;;
40503;SDS011;42292;49.048;8.374;2022-10-16T06:02:25;4.57;;;1.73;;
40503;SDS011;42292;49.048;8.374;2022-10-16T06:04:55;6.82;;;2.28;;
40503;SDS011;42292;49.048;8.374;2022-10-16T06:07:21;5.30;;;1.70;;
40503;SDS011;42292;49.048;8.374;2022-10-16T06:09:51;4.20;;;1.70;;
40503;SDS011;42292;49.048;8.374;2022-10-16T06:12:17;2.45;;;1.48;;
40503;SDS011;42292;49.048;8.374;2022-10-16T06:14:44;1.60;;;1.40;;
40503;SDS011;42292;49.048;8.374;2022-10-16T06:17:13;4.10;;;1.55;;
40503;SDS011;42292;49.048;8.374;2022-10-16T06:19:39;4.38;;;2.88;;
40503;SDS011;42292;49.048;8.374;2022-10-16T06:22:07;4.40;;;2.72;;
40503;SDS011;42292;49.048;8.374;2022-10-16T06:24:35;3.25;;;2.00;;
40503;SDS011;42292;49.048;8.374;2022-10-16T06:27:01;4.10;;;2.00;;
40503;SDS011;42292;49.048;8.374;2022-10-16T06:29:31;6.10;;;2.20;;
40503;SDS011;42292;49.048;8.374;2022-10-16T06:31:56;2.95;;;1.80;;
40503;SDS011;42292;49.048;8.374;2022-10-16T06:34:22;4.57;;;2.00;;
40503;SDS011;42292;49.048;8.374;2022-10-16T06:36:47;4.35;;;2.00;;
40503;SDS011;42292;49.048;8.374;2022-10-16T06:39:13;4.77;;;2.00;;
40503;SDS011;42292;49.048;8.374;2022-10-16T06:41:39;5.10;;;2.07;;
40503;SDS011;42292;49.048;8.374;2022-10-16T06:44:05;5.97;;;2.10;;
40503;SDS011;42292;49.048;8.374;2022-10-16T06:46:31;6.53;;;2.20;;
40503;SDS011;42292;49.048;8.374;2022-10-16T06:48:59;4.90;;;2.10;;
40503;SDS011;42292;49.048;8.374;2022-10-16T06:51:25;5.33;;;2.20;;
40503;SDS011;42292;49.048;8.374;2022-10-16T06:53:52;3.88;;;2.00;;
40503;SDS011;42292;49.048;8.374;2022-10-16T06:56:24;2.90;;;1.63;;
40503;SDS011;42292;49.048;8.374;2022-10-16T06:58:54;4.00;;;1.73;;
40503;SDS011;42292;49.048;8.374;2022-10-16T07:01:24;5.43;;;1.95;;
40503;SDS011;42292;49.048;8.374;2022-10-16T07:03:51;3.77;;;1.77;;
40503;SDS011;42292;49.048;8.374;2022-10-16T07:06:18;6.73;;;2.10;;
40503;SDS011;42292;49.048;8.374;2022-10-16T07:08:45;3.00;;;1.65;;
40503;SDS011;42292;49.048;8.374;2022-10-16T07:11:13;2.70;;;1.70;;
40503;SDS011;42292;49.048;8.374;2022-10-16T07:13:41;6.43;;;1.88;;
40503;SDS011;42292;49.048;8.374;2022-10-16T07:16:09;5.00;;;1.60;;
40503;SDS011;42292;49.048;8.374;2022-10-16T07:18:39;4.43;;;1.90;;
40503;SDS011;42292;49.048;8.374;2022-10-16T07:21:14;3.45;;;1.73;;
40503;SDS011;42292;49.048;8.374;2022-10-16T07:23:52;6.28;;;2.20;;
40503;SDS011;42292;49.048;8.374;2022-10-16T07:26:19;5.30;;;2.70;;
40503;SDS011;42292;49.048;8.374;2022-10-16T07:28:47;3.03;;;1.52;;
40503;SDS011;42292;49.048;8.374;2022-10-16T07:31:13;5.63;;;2.40;;
40503;SDS011;42292;49.048;8.374;2022-10-16T07:33:43;3.30;;;2.28;;
40503;SDS011;42292;49.048;8.374;2022-10-16T07:36:12;6.20;;;2.13;;
40503;SDS011;42292;49.048;8.374;2022-10-16T07:38:38;7.18;;;2.35;;
40503;SDS011;42292;49.048;8.374;2022-10-16T07:41:05;5.40;;;2.42;;
40503;SDS011;42292;49.048;8.374;2022-10-16T07:43:32;4.40;;;2.13;;
40503;SDS011;42292;49.048;8.374;2022-10-16T07:45:58;7.45;;;1.90;;
40503;SDS011;42292;49.048;8.374;2022-10-16T07:48:27;7.50;;;1.73;;
40503;SDS011;42292;49.048;8.374;2022-10-16T07:51:01;4.43;;;1.70;;
40503;SDS011;42292;49.048;8.374;2022-10-16T07:53:30;3.67;;;1.60;;
40503;SDS011;42292;49.048;8.374;2022-10-16T07:55:56;3.10;;;1.50;;
40503;SDS011;42292;49.048;8.374;2022-10-16T07:58:26;6.97;;;1.65;;
40503;SDS011;42292;49.048;8.374;2022-10-16T08:00:55;4.55;;;1.40;;
40503;SDS011;42292;49.048;8.374;2022-10-16T08:03:24;3.90;;;1.30;;
40503;SDS011;42292;49.048;8.374;2022-10-16T08:05:56;3.70;;;1.70;;
40503;SDS011;42292;49.048;8.374;2022-10-16T08:08:22;5.63;;;1.40;;
40503;SDS011;42292;49.048;8.374;2022-10-16T08:10:48;5.33;;;1.90;;
40503;SDS011;42292;49.048;8.374;2022-10-16T08:13:13;1.90;;;1.40;;
40503;SDS011;42292;49.048;8.374;2022-10-16T08:15:40;4.72;;;1.58;;
40503;SDS011;42292;49.048;8.374;2022-10-16T08:18:11;4.95;;;1.38;;
40503;SDS011;42292;49.048;8.374;2022-10-16T08:20:38;4.30;;;1.65;;
40503;SDS011;42292;49.048;8.374;2022-10-16T08:23:05;4.05;;;1.30;;
40503;SDS011;42292;49.048;8.374;2022-10-16T08:25:35;3.03;;;1.33;;
40503;SDS011;42292;49.048;8.374;2022-10-16T08:28:05;3.38;;;1.58;;
40503;SDS011;42292;49.048;8.374;2022-10-16T08:30:32;4.80;;;1.50;;
40503;SDS011;42292;49.048;8.374;2022-10-16T08:32:58;3.47;;;1.50;;
40503;SDS011;42292;49.048;8.374;2022-10-16T08:35:24;3.00;;;1.25;;
40503;SDS011;42292;49.048;8.374;2022-10-16T08:37:52;5.47;;;1.52;;
40503;SDS011;42292;49.048;8.374;2022-10-16T08:45:28;4.10;;;1.60;;
40503;SDS011;42292;49.048;8.374;2022-10-16T08:50:52;4.90;;;1.58;;
40503;SDS011;42292;49.048;8.374;2022-10-16T08:53:27;3.50;;;1.58;;
40503;SDS011;42292;49.048;8.374;2022-10-16T08:55:56;4.55;;;1.48;;
40503;SDS011;42292;49.048;8.374;2022-10-16T08:58:26;5.27;;;1.67;;
40503;SDS011;42292;49.048;8.374;2022-10-16T09:01:00;2.35;;;1.58;;
40503;SDS011;42292;49.048;8.374;2022-10-16T09:03:40;4.45;;;1.30;;
40503;SDS011;42292;49.048;8.374;2022-10-16T09:14:52;7.13;;;2.40;;
40503;SDS011;42292;49.048;8.374;2022-10-16T09:22:44;5.22;;;1.88;;
40503;SDS011;42292;49.048;8.374;2022-10-16T09:25:14;3.20;;;1.73;;
40503;SDS011;42292;49.048;8.374;2022-10-16T09:27:42;4.15;;;1.65;;
40503;SDS011;42292;49.048;8.374;2022-10-16T09:30:19;2.35;;;1.30;;
40503;SDS011;42292;49.048;8.374;2022-10-16T09:32:47;3.53;;;1.60;;
40503;SDS011;42292;49.048;8.374;2022-10-16T09:35:19;5.90;;;1.80;;
40503;SDS011;42292;49.048;8.374;2022-10-16T09:37:51;5.05;;;1.95;;
40503;SDS011;42292;49.048;8.374;2022-10-16T09:42:56;6.37;;;2.10;;
40503;SDS011;42292;49.048;8.374;2022-10-16T09:45:28;4.07;;;2.20;;
40503;SDS011;42292;49.048;8.374;2022-10-16T09:47:56;3.55;;;2.00;;
40503;SDS011;42292;49.048;8.374;2022-10-16T09:50:24;5.13;;;2.20;;
40503;SDS011;42292;49.048;8.374;2022-10-16T09:53:01;6.22;;;2.28;;
40503;SDS011;42292;49.048;8.374;2022-10-16T09:55:29;3.45;;;1.92;;
40503;SDS011;42292;49.048;8.374;2022-10-16T09:57:54;4.30;;;2.03;;
40503;SDS011;42292;49.048;8.374;2022-10-16T10:00:20;5.03;;;2.63;;
40503;SDS011;42292;49.048;8.374;2022-10-16T10:02:49;3.78;;;1.70;;
40503;SDS011;42292;49.048;8.374;2022-10-16T10:05:23;7.25;;;1.70;;
40503;SDS011;42292;49.048;8.374;2022-10-16T10:07:58;5.68;;;1.88;;
40503;SDS011;42292;49.048;8.374;2022-10-16T10:10:32;4.95;;;1.55;;
40503;SDS011;42292;49.048;8.374;2022-10-16T10:13:02;4.78;;;1.73;;
40503;SDS011;42292;49.048;8.374;2022-10-16T10:15:27;3.50;;;1.47;;
40503;SDS011;42292;49.048;8.374;2022-10-16T10:18:00;6.75;;;1.67;;
40503;SDS011;42292;49.048;8.374;2022-10-16T10:22:59;3.00;;;1.38;;
40503;SDS011;42292;49.048;8.374;2022-10-16T10:28:21;5.22;;;1.92;;
40503;SDS011;42292;49.048;8.374;2022-10-16T10:31:20;4.40;;;2.33;;
40503;SDS011;42292;49.048;8.374;2022-10-16T10:33:53;6.13;;;2.97;;
40503;SDS011;42292;49.048;8.374;2022-10-16T10:36:35;3.85;;;1.40;;
40503;SDS011;42292;49.048;8.374;2022-10-16T10:49:25;3.97;;;1.38;;
40503;SDS011;42292;49.048;8.374;2022-10-16T10:55:10;6.18;;;1.92;;
40503;SDS011;42292;49.048;8.374;2022-10-16T10:57:50;5.90;;;1.83;;
40503;SDS011;42292;49.048;8.374;2022-10-16T11:06:33;5.10;;;1.60;;
40503;SDS011;42292;49.048;8.374;2022-10-16T11:11:52;5.07;;;2.85;;
40503;SDS011;42292;49.048;8.374;2022-10-16T11:17:05;5.90;;;1.77;;
40503;SDS011;42292;49.048;8.374;2022-10-16T11:19:39;5.57;;;2.22;;
40503;SDS011;42292;49.048;8.374;2022-10-16T11:25:25;5.20;;;1.67;;
40503;SDS011;42292;49.048;8.374;2022-10-16T11:28:23;4.75;;;1.30;;
40503;SDS011;42292;49.048;8.374;2022-10-16T11:31:00;2.42;;;1.30;;
40503;SDS011;42292;49.048;8.374;2022-10-16T11:33:30;6.10;;;1.60;;
40503;SDS011;42292;49.048;8.374;2022-10-16T11:36:23;3.95;;;1.55;;
40503;SDS011;42292;49.048;8.374;2022-10-16T11:39:07;5.07;;;1.70;;
40503;SDS011;42292;49.048;8.374;2022-10-16T11:47:43;6.97;;;1.70;;
40503;SDS011;42292;49.048;8.374;2022-10-16T11:50:43;4.47;;;1.70;;
40503;SDS011;42292;49.048;8.374;2022-10-16T11:53:35;5.27;;;1.30;;
40503;SDS011;42292;49.048;8.374;2022-10-16T11:56:11;3.40;;;1.00;;
40503;SDS011;42292;49.048;8.374;2022-10-16T12:01:43;3.72;;;1.45;;
40503;SDS011;42292;49.048;8.374;2022-10-16T12:07:18;3.42;;;1.27;;
40503;SDS011;42292;49.048;8.374;2022-10-16T12:09:52;4.93;;;1.33;;
40503;SDS011;42292;49.048;8.374;2022-10-16T12:12:25;3.28;;;1.13;;
40503;SDS011;42292;49.048;8.374;2022-10-16T12:15:02;2.90;;;1.38;;
40503;SDS011;42292;49.048;8.374;2022-10-16T12:17:44;3.03;;;1.17;;
40503;SDS011;42292;49.048;8.374;2022-10-16T12:22:41;2.72;;;1.10;;
40503;SDS011;42292;49.048;8.374;2022-10-16T12:25:22;5.60;;;1.10;;
40503;SDS011;42292;49.048;8.374;2022-10-16T12:28:05;4.15;;;1.50;;
40503;SDS011;42292;49.048;8.374;2022-10-16T12:30:33;4.37;;;1.47;;
40503;SDS011;42292;49.048;8.374;2022-10-16T12:33:04;3.80;;;1.30;;
40503;SDS011;42292;49.048;8.374;2022-10-16T12:35:45;2.92;;;1.00;;
40503;SDS011;42292;49.048;8.374;2022-10-16T12:40:41;5.47;;;1.40;;
40503;SDS011;42292;49.048;8.374;2022-10-16T12:48:53;7.90;;;1.53;;
40503;SDS011;42292;49.048;8.374;2022-10-16T12:51:44;4.63;;;1.55;;
40503;SDS011;42292;49.048;8.374;2022-10-16T12:54:45;2.90;;;1.48;;
40503;SDS011;42292;49.048;8.374;2022-10-16T13:05:59;2.90;;;1.47;;
40503;SDS011;42292;49.048;8.374;2022-10-16T13:14:32;5.33;;;1.70;;
40503;SDS011;42292;49.048;8.374;2022-10-16T13:17:23;5.70;;;1.90;;
40503;SDS011;42292;49.048;8.374;2022-10-16T13:28:13;2.55;;;1.50;;
40503;SDS011;42292;49.048;8.374;2022-10-16T13:30:45;3.25;;;1.50;;
40503;SDS011;42292;49.048;8.374;2022-10-16T13:33:18;4.15;;;1.60;;
40503;SDS011;42292;49.048;8.374;2022-10-16T13:35:57;4.72;;;1.70;;
40503;SDS011;42292;49.048;8.374;2022-10-16T13:38:27;4.10;;;1.73;;
40503;SDS011;42292;49.048;8.374;2022-10-16T13:41:01;3.38;;;1.80;;
40503;SDS011;42292;49.048;8.374;2022-10-16T13:48:43;3.75;;;2.03;;
40503;SDS011;42292;49.048;8.374;2022-10-16T13:51:23;5.32;;;2.33;;
40503;SDS011;42292;49.048;8.374;2022-10-16T13:53:51;6.03;;;2.30;;
40503;SDS011;42292;49.048;8.374;2022-10-16T13:56:19;3.90;;;1.88;;
40503;SDS011;42292;49.048;8.374;2022-10-16T13:58:57;3.83;;;1.70;;
40503;SDS011;42292;49.048;8.374;2022-10-16T14:01:28;5.35;;;1.90;;
40503;SDS011;42292;49.048;8.374;2022-10-16T14:04:00;7.57;;;6.40;;
40503;SDS011;42292;49.048;8.374;2022-10-16T14:06:32;13.43;;;12.15;;
40503;SDS011;42292;49.048;8.374;2022-10-16T14:09:12;2.65;;;1.67;;
40503;SDS011;42292;49.048;8.374;2022-10-16T14:12:00;2.95;;;1.45;;
40503;SDS011;42292;49.048;8.374;2022-10-16T14:14:35;4.50;;;1.60;;
40503;SDS011;42292;49.048;8.374;2022-10-16T14:17:12;3.60;;;1.70;;
40503;SDS011;42292;49.048;8.374;2022-10-16T14:19:45;3.03;;;1.73;;
40503;SDS011;42292;49.048;8.374;2022-10-16T14:24:52;3.50;;;1.58;;
40503;SDS011;42292;49.048;8.374;2022-10-16T14:27:36;5.10;;;1.63;;
40503;SDS011;42292;49.048;8.374;2022-10-16T14:32:53;5.30;;;1.80;;
40503;SDS011;42292;49.048;8.374;2022-10-16T14:35:40;2.88;;;1.40;;
40503;SDS011;42292;49.048;8.374;2022-10-16T14:38:14;5.22;;;1.90;;
40503;SDS011;42292;49.048;8.374;2022-10-16T14:40:46;3.15;;;1.50;;
40503;SDS011;42292;49.048;8.374;2022-10-16T14:43:14;4.30;;;2.03;;
40503;SDS011;42292;49.048;8.374;2022-10-16T14:45:50;5.30;;;1.80;;
40503;SDS011;42292;49.048;8.374;2022-10-16T14:48:23;9.52;;;1.80;;
40503;SDS011;42292;49.048;8.374;2022-10-16T14:50:52;5.72;;;1.90;;
40503;SDS011;42292;49.048;8.374;2022-10-16T14:53:18;4.28;;;1.60;;
40503;SDS011;42292;49.048;8.374;2022-10-16T14:55:46;6.25;;;1.42;;
40503;SDS011;42292;49.048;8.374;2022-10-16T14:58:17;3.83;;;1.30;;
40503;SDS011;42292;49.048;8.374;2022-10-16T15:00:46;3.42;;;1.38;;
40503;SDS011;42292;49.048;8.374;2022-10-16T15:03:14;3.53;;;1.50;;
40503;SDS011;42292;49.048;8.374;2022-10-16T15:05:43;3.08;;;1.50;;
40503;SDS011;42292;49.048;8.374;2022-10-16T15:08:10;2.40;;;1.40;;
40503;SDS011;42292;49.048;8.374;2022-10-16T15:10:39;3.42;;;1.48;;
40503;SDS011;42292;49.048;8.374;2022-10-16T15:13:12;2.05;;;1.35;;
40503;SDS011;42292;49.048;8.374;2022-10-16T15:15:42;5.10;;;1.47;;
40503;SDS011;42292;49.048;8.374;2022-10-16T15:18:11;4.28;;;1.73;;
40503;SDS011;42292;49.048;8.374;2022-10-16T15:20:44;3.13;;;1.60;;
40503;SDS011;42292;49.048;8.374;2022-10-16T15:23:17;3.58;;;1.70;;
40503;SDS011;42292;49.048;8.374;2022-10-16T15:25:46;4.55;;;2.30;;
40503;SDS011;42292;49.048;8.374;2022-10-16T15:28:17;2.40;;;2.20;;
40503;SDS011;42292;49.048;8.374;2022-10-16T15:30:43;3.63;;;1.92;;
40503;SDS011;42292;49.048;8.374;2022-10-16T15:33:13;5.15;;;2.15;;
40503;SDS011;42292;49.048;8.374;2022-10-16T15:35:41;4.90;;;2.17;;
40503;SDS011;42292;49.048;8.374;2022-10-16T15:38:13;4.40;;;1.93;;
40503;SDS011;42292;49.048;8.374;2022-10-16T15:40:40;4.90;;;1.90;;
40503;SDS011;42292;49.048;8.374;2022-10-16T15:43:06;3.57;;;1.90;;
40503;SDS011;42292;49.048;8.374;2022-10-16T15:45:32;5.63;;;2.20;;
40503;SDS011;42292;49.048;8.374;2022-10-16T15:47:57;4.40;;;2.73;;
40503;SDS011;42292;49.048;8.374;2022-10-16T15:50:25;7.65;;;3.10;;
40503;SDS011;42292;49.048;8.374;2022-10-16T15:52:51;6.57;;;3.30;;
40503;SDS011;42292;49.048;8.374;2022-10-16T15:55:19;4.73;;;3.57;;
40503;SDS011;42292;49.048;8.374;2022-10-16T15:57:45;7.63;;;5.10;;
40503;SDS011;42292;49.048;8.374;2022-10-16T16:00:16;14.82;;;10.00;;
40503;SDS011;42292;49.048;8.374;2022-10-16T16:02:49;10.35;;;5.72;;
40503;SDS011;42292;49.048;8.374;2022-10-16T16:05:19;7.35;;;5.32;;
40503;SDS011;42292;49.048;8.374;2022-10-16T16:07:46;7.72;;;4.32;;
40503;SDS011;42292;49.048;8.374;2022-10-16T16:10:12;8.85;;;3.60;;
40503;SDS011;42292;49.048;8.374;2022-10-16T16:12:38;7.87;;;3.70;;
40503;SDS011;42292;49.048;8.374;2022-10-16T16:15:05;8.90;;;5.93;;
40503;SDS011;42292;49.048;8.374;2022-10-16T16:17:32;11.48;;;7.43;;
40503;SDS011;42292;49.048;8.374;2022-10-16T16:20:01;16.60;;;13.55;;
40503;SDS011;42292;49.048;8.374;2022-10-16T16:22:28;8.50;;;4.30;;
40503;SDS011;42292;49.048;8.374;2022-10-16T16:24:54;6.15;;;3.67;;
40503;SDS011;42292;49.048;8.374;2022-10-16T16:27:22;4.25;;;3.20;;
40503;SDS011;42292;49.048;8.374;2022-10-16T16:29:52;7.03;;;4.38;;
40503;SDS011;42292;49.048;8.374;2022-10-16T16:32:18;5.30;;;4.20;;
40503;SDS011;42292;49.048;8.374;2022-10-16T16:34:46;8.15;;;4.70;;
40503;SDS011;42292;49.048;8.374;2022-10-16T16:37:12;7.63;;;4.38;;
40503;SDS011;42292;49.048;8.374;2022-10-16T16:39:38;6.25;;;5.10;;
40503;SDS011;42292;49.048;8.374;2022-10-16T16:42:04;6.47;;;4.40;;
40503;SDS011;42292;49.048;8.374;2022-10-16T16:44:35;11.13;;;5.90;;
40503;SDS011;42292;49.048;8.374;2022-10-16T16:47:06;14.05;;;7.63;;
40503;SDS011;42292;49.048;8.374;2022-10-16T16:49:31;12.70;;;8.90;;
40503;SDS011;42292;49.048;8.374;2022-10-16T16:51:57;13.03;;;8.27;;
40503;SDS011;42292;49.048;8.374;2022-10-16T16:54:23;21.77;;;13.53;;
40503;SDS011;42292;49.048;8.374;2022-10-16T16:56:51;13.80;;;9.77;;
40503;SDS011;42292;49.048;8.374;2022-10-16T16:59:17;18.33;;;11.48;;
40503;SDS011;42292;49.048;8.374;2022-10-16T17:01:45;16.03;;;10.27;;
40503;SDS011;42292;49.048;8.374;2022-10-16T17:04:11;11.73;;;9.63;;
40503;SDS011;42292;49.048;8.374;2022-10-16T17:06:42;12.97;;;9.27;;
40503;SDS011;42292;49.048;8.374;2022-10-16T17:09:08;13.68;;;8.80;;
40503;SDS011;42292;49.048;8.374;2022-10-16T17:11:41;11.40;;;7.88;;
40503;SDS011;42292;49.048;8.374;2022-10-16T17:14:09;10.35;;;7.78;;
40503;SDS011;42292;49.048;8.374;2022-10-16T17:16:38;18.25;;;16.13;;
40503;SDS011;42292;49.048;8.374;2022-10-16T17:19:06;15.88;;;13.15;;